21kousinmaru — JD2168 — position and weather

sailwx.info

Track history (hours):
 
Tides and Currents Weather Stations Pressure Air Temp Water Temp Dewpoint Dewpoint Depression Visibility Wind Speed Wind Dir Waves Ship Positions

21kousinmaru

Last reported at 2014-Aug-19 23:12 UTC. Time now 2014-Aug-20 12:43 UTC.
Position N 34°13' E 132°15'.

Length 68 m; draft 4.5 m.

MMSI: 431501835.

Date/timePositionNaut miles runAvg speedWind from/ knotsBaromVisibWave heightAir tempDewpointWater temp
2014-Aug-19 23:12N 34°13' E 132°15'9 0.7
2014-Aug-19 10:33N 34°07' E 132°23'12 0.5
2014-Aug-18 08:03N 34°04' E 132°37'2111.5
2014-Aug-18 06:15N 34°13' E 132°15'1 1.3
2014-Aug-18 05:33N 34°14' E 132°14'0 0.0
2014-Aug-18 03:12N 34°14' E 132°14'1 0.3
2014-Aug-18 01:29N 34°14' E 132°14'0 0.0
2014-Aug-18 00:26N 34°14' E 132°14'0 0.0
2014-Aug-17 18:16N 34°14' E 132°14'0 0.0
2014-Aug-17 17:31N 34°14' E 132°14'0 0.0
2014-Aug-17 16:04N 34°14' E 132°14'0 0.0
2014-Aug-17 15:04N 34°14' E 132°14'6 7.4
2014-Aug-17 14:17N 34°10' E 132°18'36610.9
2014-Aug-16 04:33N 35°04' E 139°39'1211.9
2014-Aug-16 03:34N 35°14' E 139°46'1111.3
2014-Aug-16 02:34N 35°26' E 139°45'1312.6
2014-Aug-16 01:33N 35°31' E 139°59'3 3.1
2014-Aug-16 00:33N 35°31' E 140°02'0 0.0
2014-Aug-15 23:34N 35°31' E 140°02'0 0.0
2014-Aug-15 22:33N 35°31' E 140°02'2 1.9
2014-Aug-15 21:33N 35°31' E 140°00'4 4.4
2014-Aug-15 20:33N 35°28' E 139°56'0 0.0
2014-Aug-15 19:33N 35°28' E 139°56'0 0.0
2014-Aug-15 18:33N 35°28' E 139°56'0 0.0
2014-Aug-15 17:33N 35°28' E 139°56'0 0.0
2014-Aug-15 16:33N 35°28' E 139°56'0 0.0
2014-Aug-15 15:33N 35°28' E 139°56'0 0.0
2014-Aug-15 14:33N 35°28' E 139°56'0 0.0
2014-Aug-15 13:33N 35°28' E 139°56'0 0.0
2014-Aug-15 12:32N 35°28' E 139°56'0 0.0
2014-Aug-15 11:33N 35°28' E 139°56'0 0.0
2014-Aug-15 10:34N 35°28' E 139°56'0 0.0
2014-Aug-15 09:33N 35°28' E 139°56'0 0.0
2014-Aug-15 08:33N 35°28' E 139°56'0 0.0
2014-Aug-15 07:29N 35°28' E 139°56'910.2
2014-Aug-15 06:33N 35°24' E 139°46'1212.0
2014-Aug-15 05:33N 35°12' E 139°47'1212.3
2014-Aug-15 04:33N 35°01' E 139°39'  
Track history (hours):
 
Tides and Currents Weather Stations Pressure Air Temp Water Temp Dewpoint Dewpoint Depression Visibility Wind Speed Wind Dir Waves Ship Positions

21kousinmaru

Last reported at 2014-Aug-19 23:12 UTC. Time now 2014-Aug-20 12:43 UTC.
Position N 34°13' E 132°15'.

Length 68 m; draft 4.5 m.

MMSI: 431501835.

Date/timePositionNaut miles runAvg speedWind from/ knotsBaromVisibWave heightAir tempDewpointWater temp
2014-Aug-19 23:12N 34°13' E 132°15'9 0.7
2014-Aug-19 10:33N 34°07' E 132°23'12 0.5
2014-Aug-18 08:03N 34°04' E 132°37'2111.5
2014-Aug-18 06:15N 34°13' E 132°15'1 1.3
2014-Aug-18 05:33N 34°14' E 132°14'0 0.0
2014-Aug-18 03:12N 34°14' E 132°14'1 0.3
2014-Aug-18 01:29N 34°14' E 132°14'0 0.0
2014-Aug-18 00:26N 34°14' E 132°14'0 0.0
2014-Aug-17 18:16N 34°14' E 132°14'0 0.0
2014-Aug-17 17:31N 34°14' E 132°14'0 0.0
2014-Aug-17 16:04N 34°14' E 132°14'0 0.0
2014-Aug-17 15:04N 34°14' E 132°14'6 7.4
2014-Aug-17 14:17N 34°10' E 132°18'36610.9
2014-Aug-16 04:33N 35°04' E 139°39'1211.9
2014-Aug-16 03:34N 35°14' E 139°46'1111.3
2014-Aug-16 02:34N 35°26' E 139°45'1312.6
2014-Aug-16 01:33N 35°31' E 139°59'3 3.1
2014-Aug-16 00:33N 35°31' E 140°02'0 0.0
2014-Aug-15 23:34N 35°31' E 140°02'0 0.0
2014-Aug-15 22:33N 35°31' E 140°02'2 1.9
2014-Aug-15 21:33N 35°31' E 140°00'4 4.4
2014-Aug-15 20:33N 35°28' E 139°56'0 0.0
2014-Aug-15 19:33N 35°28' E 139°56'0 0.0
2014-Aug-15 18:33N 35°28' E 139°56'0 0.0
2014-Aug-15 17:33N 35°28' E 139°56'0 0.0
2014-Aug-15 16:33N 35°28' E 139°56'0 0.0
2014-Aug-15 15:33N 35°28' E 139°56'0 0.0
2014-Aug-15 14:33N 35°28' E 139°56'0 0.0
2014-Aug-15 13:33N 35°28' E 139°56'0 0.0
2014-Aug-15 12:32N 35°28' E 139°56'0 0.0
2014-Aug-15 11:33N 35°28' E 139°56'0 0.0
2014-Aug-15 10:34N 35°28' E 139°56'0 0.0
2014-Aug-15 09:33N 35°28' E 139°56'0 0.0
2014-Aug-15 08:33N 35°28' E 139°56'0 0.0
2014-Aug-15 07:29N 35°28' E 139°56'910.2
2014-Aug-15 06:33N 35°24' E 139°46'1212.0
2014-Aug-15 05:33N 35°12' E 139°47'1212.3
2014-Aug-15 04:33N 35°01' E 139°39'  

Dump ship's entire track history